Latest Coastal Weather Observations for Lihou Reef Lighthouse

IDQ60701

Issued at 10:25 am EST Saturday 2 August 2014 (issued every 10 minutes, with the page automatically refreshed every 10 minutes)

About coastal observations | Map of coastal stations | Coastal observations for QLD | Marine services | Other Formats
Station Details ID: 200880 Name: LIHOU REEF LIGHTHOUSE Lat: -17.13 Lon: 152.15 Height: 0.0 m
Data from the previous 72 hours. | See also: Recent months for locations in Queensland
Date/Time
EST
Temp

°C
Wind Pressure Rain
since 9am
mm
Weather Cloud Vis
km
Sea
Height
m
Swell
Dir
 
Speed
knots
Gust
knots
hPa Trend Height
m
Period
s
Dir
02/10:00am 23.9 SE 12 14 1017.5 - - - - - - - - -
02/09:30am 24.1 SE 11 13 1017.8 - - - - - - - - -
02/09:00am 23.8 SE 12 14 1017.6 - - - - - - - - -
02/08:30am 23.5 SE 11 13 1017.6 - - - - - - - - -
02/08:00am 23.5 SE 10 11 1017.4 - - - - - - - - -
02/07:30am 23.6 SSE 9 10 1017.2 - - - - - - - - -
02/07:00am 23.3 SSE 9 10 1016.9 - - - - - - - - -
02/06:30am 23.0 SSE 9 10 1016.8 - - - - - - - - -
02/06:00am 23.1 SSE 8 9 1016.5 - - - - - - - - -
02/05:30am 23.0 SSE 7 9 1016.4 - - - - - - - - -
02/05:00am 23.2 SSE 7 9 1016.1 - - - - - - - - -
02/04:30am 23.2 SSE 7 8 1016.0 - - - - - - - - -
02/04:00am 23.1 SSE 6 7 1015.8 - - - - - - - - -
02/03:30am 23.2 SSE 5 6 1016.0 - - - - - - - - -
02/03:00am 23.3 SSE 6 7 1015.9 - - - - - - - - -
02/02:30am 23.2 SE 6 8 1016.2 - - - - - - - - -
02/02:00am 23.1 SSE 8 9 1016.4 - - - - - - - - -
02/01:30am 23.1 SSE 7 8 1016.7 - - - - - - - - -
02/01:00am 23.2 SSE 6 7 1016.8 - - - - - - - - -
02/12:30am 23.1 SSE 6 7 1017.1 - - - - - - - - -
02/12:00am 23.2 SSE 6 7 1017.3 - - - - - - - - -
 
Date/Time
EST
Temp

°C
Wind Pressure Rain
since 9am
mm
Weather Cloud Vis
km
Sea
Height
m
Swell
Dir
 
Speed
knots
Gust
knots
hPa Trend Height
m
Period
s
Dir
01/11:30pm 23.1 S 5 6 1017.3 - - - - - - - - -
01/11:00pm 23.2 SE 7 8 1017.2 - - - - - - - - -
01/10:30pm 23.1 SSE 7 8 1017.3 - - - - - - - - -
01/10:00pm 23.4 S 4 5 1017.2 - - - - - - - - -
01/09:30pm 23.5 S 4 5 1017.2 - - - - - - - - -
01/09:00pm 23.6 S 2 4 1017.1 - - - - - - - - -
01/08:30pm 23.5 S 3 4 1017.0 - - - - - - - - -
01/08:00pm 23.6 S 2 4 1016.8 - - - - - - - - -
01/07:30pm 23.7 ESE 2 3 1016.7 - - - - - - - - -
01/07:00pm 23.7 CALM 0 0 1016.2 - - - - - - - - -
01/06:30pm 23.7 CALM 0 0 1015.9 - - - - - - - - -
01/06:00pm 23.8 SE 1 2 1015.6 - - - - - - - - -
01/05:30pm 24.2 CALM 0 0 1015.6 - - - - - - - - -
01/05:00pm 25.0 ESE 1 2 1015.4 - - - - - - - - -
01/04:30pm 25.5 CALM 0 0 1015.3 - - - - - - - - -
01/04:00pm 24.8 CALM 0 0 1015.2 - - - - - - - - -
01/03:30pm 24.8 E 2 4 1015.1 - - - - - - - - -
01/03:00pm 24.9 ESE 3 4 1014.9 - - - - - - - - -
01/02:30pm 24.9 SE 1 3 1015.2 - - - - - - - - -
01/02:00pm 25.0 SE 2 3 1015.3 - - - - - - - - -
01/01:30pm 25.1 ESE 3 4 1015.5 - - - - - - - - -
01/01:00pm 24.6 E 3 4 1015.7 - - - - - - - - -
01/12:30pm 24.6 E 4 6 1016.1 - - - - - - - - -
01/12:00pm 24.3 E 4 5 1016.2 - - - - - - - - -
01/11:30am 24.2 E 4 5 1016.6 - - - - - - - - -
01/11:00am 24.1 E 5 7 1016.8 - - - - - - - - -
01/10:30am 24.2 E 6 7 1017.2 - - - - - - - - -
01/10:00am 24.3 E 6 7 1017.1 - - - - - - - - -
01/09:30am 24.7 ESE 7 8 1017.2 - - - - - - - - -
01/09:00am 24.4 E 8 9 1016.9 - - - - - - - - -
01/08:30am 24.1 E 7 8 1016.8 - - - - - - - - -
01/08:00am 24.1 E 7 9 1016.5 - - - - - - - - -
01/07:30am 24.0 E 8 9 1016.5 - - - - - - - - -
01/07:00am 23.6 E 7 9 1016.2 - - - - - - - - -
01/06:30am 23.5 E 7 8 1016.3 - - - - - - - - -
01/06:00am 23.5 E 8 10 1016.0 - - - - - - - - -
01/05:30am 23.3 E 9 10 1015.8 - - - - - - - - -
01/05:00am 23.5 E 9 11 1015.4 - - - - - - - - -
01/04:30am 23.4 E 8 10 1015.5 - - - - - - - - -
01/04:00am 23.4 E 10 11 1015.4 - - - - - - - - -
01/03:30am 23.4 E 9 10 1015.6 - - - - - - - - -
01/03:00am 23.3 E 8 9 1015.7 - - - - - - - - -
01/02:30am 23.6 E 8 9 1016.0 - - - - - - - - -
01/02:00am 23.5 E 9 11 1016.0 - - - - - - - - -
01/01:30am 23.5 E 9 10 1016.4 - - - - - - - - -
01/01:00am 23.5 E 9 11 1016.6 - - - - - - - - -
01/12:30am 23.4 E 10 12 1016.8 - - - - - - - - -
01/12:00am 23.4 ESE 9 11 1016.9 - - - - - - - - -
 
Date/Time
EST
Temp

°C
Wind Pressure Rain
since 9am
mm
Weather Cloud Vis
km
Sea
Height
m
Swell
Dir
 
Speed
knots
Gust
knots
hPa Trend Height
m
Period
s
Dir
31/11:30pm 23.5 E 10 13 1017.0 - - - - - - - - -
31/11:00pm 22.9 ESE 9 12 1017.0 - - - - - - - - -
31/10:30pm 23.0 ESE 14 15 1017.0 - - - - - - - - -
31/10:00pm 22.9 SE 13 14 1017.3 - - - - - - - - -
31/09:30pm 22.9 ESE 11 13 1017.5 - - - - - - - - -
31/09:00pm 22.8 SE 12 15 1017.3 - - - - - - - - -
31/08:30pm 23.2 SE 13 15 1017.3 - - - - - - - - -
31/08:00pm 23.4 SE 10 13 1017.0 - - - - - - - - -
31/07:30pm 23.3 SE 11 13 1016.7 - - - - - - - - -
31/07:00pm 23.2 SE 11 13 1016.4 - - - - - - - - -
31/06:30pm 23.4 SSE 12 14 1016.2 - - - - - - - - -
31/06:00pm 22.8 SSE 13 15 1015.8 - - - - - - - - -
31/05:30pm 22.9 SE 13 15 1015.7 - - - - - - - - -
31/05:00pm 22.9 SE 13 15 1015.5 - - - - - - - - -
31/04:30pm 23.1 SE 13 15 1015.5 - - - - - - - - -
31/04:00pm 23.2 SE 13 15 1015.3 - - - - - - - - -
31/03:30pm 23.6 ESE 12 14 1015.2 - - - - - - - - -
31/03:00pm 23.4 ESE 12 14 1015.2 - - - - - - - - -
31/02:30pm 23.9 ESE 13 14 1015.3 - - - - - - - - -
31/02:00pm 23.8 ESE 10 11 1015.4 - - - - - - - - -
31/01:30pm 24.1 ESE 12 14 1015.6 - - - - - - - - -
31/01:00pm 24.0 ESE 12 15 1015.8 - - - - - - - - -
31/12:30pm 24.3 ESE 11 13 1016.2 - - - - - - - - -
31/12:00pm 24.2 ESE 11 12 1016.5 - - - - - - - - -
31/11:30am 24.1 ESE 11 13 1017.0 - - - - - - - - -
31/11:00am 24.3 ESE 12 14 1017.3 - - - - - - - - -
31/10:30am 24.2 ESE 12 14 1017.6 - - - - - - - - -
31/10:00am 24.5 ESE 11 13 1017.8 - - - - - - - - -
31/09:30am 24.3 ESE 12 15 1018.1 - - - - - - - - -
31/09:00am 23.9 ESE 13 16 1018.0 - - - - - - - - -
31/08:30am 24.0 ESE 14 16 1018.0 - - - - - - - - -
31/08:00am 24.0 ESE 12 14 1017.8 - - - - - - - - -
31/07:30am 23.7 ESE 11 13 1017.8 - - - - - - - - -
31/07:00am 23.6 ESE 11 13 1017.4 - - - - - - - - -
31/06:30am 23.3 ESE 12 14 1017.3 - - - - - - - - -
31/06:00am 23.4 ESE 13 16 1017.0 - - - - - - - - -
31/05:30am 23.3 ESE 13 15 1017.0 - - - - - - - - -
31/05:00am 23.2 ESE 12 13 1016.8 - - - - - - - - -
31/04:30am 22.4 SSE 10 13 1016.8 - - - - - - - - -
31/04:00am 22.2 SSE 14 16 1016.6 - - - - - - - - -
31/03:30am 22.4 SE 15 16 1016.6 - - - - - - - - -
31/03:00am 22.8 ESE 14 16 1016.7 - - - - - - - - -
31/02:30am 23.0 SE 13 16 1016.9 - - - - - - - - -
31/02:00am 23.3 ESE 13 14 1017.2 - - - - - - - - -
31/01:30am 23.4 ESE 13 15 1017.4 - - - - - - - - -
31/01:00am 23.2 ESE 13 15 1017.6 - - - - - - - - -
31/12:30am 23.4 ESE 13 16 1017.9 - - - - - - - - -
31/12:00am 23.3 ESE 15 18 1018.0 - - - - - - - - -
 
Date/Time
EST
Temp

°C
Wind Pressure Rain
since 9am
mm
Weather Cloud Vis
km
Sea
Height
m
Swell
Dir
 
Speed
knots
Gust
knots
hPa Trend Height
m
Period
s
Dir
30/11:30pm 23.1 ESE 15 18 1018.2 - - - - - - - - -
30/11:00pm 23.1 ESE 15 18 1018.4 - - - - - - - - -
30/10:30pm 23.0 ESE 15 18 1018.6 - - - - - - - - -
30/10:00pm 23.1 ESE 16 18 1018.5 - - - - - - - - -
30/09:30pm 23.1 ESE 15 18 1018.7 - - - - - - - - -
30/09:00pm 22.7 ESE 16 20 1018.3 - - - - - - - - -
30/08:30pm 23.0 ESE 17 20 1018.2 - - - - - - - - -
30/08:00pm 23.1 ESE 17 19 1018.0 - - - - - - - - -
30/07:30pm 23.0 SE 17 21 1017.7 - - - - - - - - -
30/07:00pm 23.2 SE 15 18 1017.5 - - - - - - - - -
30/06:30pm 23.2 SSE 15 17 1017.5 - - - - - - - - -
30/06:00pm 23.0 SE 16 19 1017.1 - - - - - - - - -
30/05:30pm 23.3 SE 15 18 1017.0 - - - - - - - - -
30/05:00pm 23.4 SE 16 19 1016.7 - - - - - - - - -
30/04:30pm 23.5 SE 18 20 1016.6 - - - - - - - - -
30/04:00pm 23.4 SE 18 21 1016.3 - - - - - - - - -
30/03:30pm 23.5 SE 18 21 1016.2 - - - - - - - - -
30/03:00pm 23.4 SE 19 23 1016.2 - - - - - - - - -
30/02:30pm 23.4 SE 20 22 1016.3 - - - - - - - - -
30/02:00pm 23.3 ESE 18 22 1016.4 - - - - - - - - -
30/01:30pm 23.5 ESE 19 22 1016.9 - - - - - - - - -
30/01:00pm 24.2 ESE 16 20 1017.2 - - - - - - - - -
30/12:30pm 24.0 ESE 16 19 1017.9 - - - - - - - - -
30/12:00pm 23.8 SE 18 21 1018.1 - - - - - - - - -
30/11:30am 23.7 SE 19 23 1018.6 - - - - - - - - -
30/11:00am 23.8 SE 22 27 1018.8 - - - - - - - - -
30/10:30am 23.7 SE 21 25 1019.3 - - - - - - - - -

Other Formats:

Comma delimited format used in spreadsheet applications
http://www.bom.gov.au/fwo/IDQ60701/IDQ60701.94293.axf

JavaScript Object Notation format (JSON) in row-major order
http://www.bom.gov.au/fwo/IDQ60701/IDQ60701.94293.json